Time;durP1;ratioP1;P1;durP2;ratioP2;P2;SDS_P1;SDS_P2;PMS_P1;PMS_P2;Temp;Humidity;BMP_temperature;BMP_pressure;BME280_temperature;BME280_humidity;BME280_pressure;Samples;Min_cycle;Max_cycle;Signal;HPM_P1;HPM_P2
2023/03/28 00:00:15;;;;;;;13.25;1.92;;;;;;;;;;5034427;28;20132;-67
2023/03/28 00:02:41;;;;;;;11.55;2.03;;;;;;;;;;5033419;28;20528;-66
2023/03/28 00:05:07;;;;;;;11.38;2.00;;;;;;;;;;5052101;28;20483;-66
2023/03/28 00:07:33;;;;;;;16.52;2.00;;;;;;;;;;5052000;28;20108;-67
2023/03/28 00:10:00;;;;;;;11.18;2.17;;;;;;;;;;5032003;28;20105;-66
2023/03/28 00:12:28;;;;;;;22.55;3.15;;;;;;;;;;5032753;28;21540;-66
2023/03/28 00:14:56;;;;;;;12.85;2.15;;;;;;;;;;5061637;28;20123;-66
2023/03/28 00:17:23;;;;;;;15.75;3.28;;;;;;;;;;5058324;28;20090;-67
2023/03/28 00:19:52;;;;;;;18.58;3.28;;;;;;;;;;5061856;28;20325;-66
2023/03/28 00:22:21;;;;;;;12.30;2.17;;;;;;;;;;5040348;28;20053;-66
2023/03/28 00:24:48;;;;;;;19.85;2.67;;;;;;;;;;5059580;28;20118;-66
2023/03/28 00:27:14;;;;;;;15.82;2.60;;;;;;;;;;5059812;28;20052;-66
2023/03/28 00:29:41;;;;;;;9.65;2.20;;;;;;;;;;5039072;28;20786;-66
2023/03/28 00:32:07;;;;;;;17.45;2.25;;;;;;;;;;5057692;28;20040;-66
2023/03/28 00:34:33;;;;;;;15.18;2.75;;;;;;;;;;5036137;28;20048;-67
2023/03/28 00:37:01;;;;;;;15.18;1.80;;;;;;;;;;5058521;28;20048;-67
2023/03/28 00:39:28;;;;;;;11.65;2.15;;;;;;;;;;5056216;28;20067;-66
2023/03/28 00:41:55;;;;;;;8.02;1.60;;;;;;;;;;5056788;28;20531;-66
2023/03/28 00:44:41;;;;;;;23.90;2.30;;;;;;;;;;5055569;28;20544;-66
2023/03/28 00:47:12;;;;;;;19.42;2.70;;;;;;;;;;5054124;28;20110;-66
2023/03/28 00:49:38;;;;;;;15.88;2.70;;;;;;;;;;5027710;28;20049;-67
2023/03/28 00:52:04;;;;;;;16.20;2.17;;;;;;;;;;5050014;28;20041;-66
2023/03/28 00:54:32;;;;;;;20.20;2.33;;;;;;;;;;5052695;28;20041;-64
2023/03/28 00:57:00;;;;;;;16.90;2.30;;;;;;;;;;5049632;28;20055;-66
2023/03/28 00:59:27;;;;;;;13.60;2.10;;;;;;;;;;5035487;28;20048;-66
2023/03/28 01:01:54;;;;;;;20.20;2.95;;;;;;;;;;5052810;28;20510;-66
2023/03/28 01:04:23;;;;;;;27.27;2.67;;;;;;;;;;5032225;28;20127;-67
2023/03/28 01:06:53;;;;;;;17.27;3.10;;;;;;;;;;5051115;28;20064;-66
2023/03/28 01:09:20;;;;;;;17.60;3.15;;;;;;;;;;5047364;28;20053;-67
2023/03/28 01:11:47;;;;;;;17.08;2.22;;;;;;;;;;5048798;28;20454;-66
2023/03/28 01:14:15;;;;;;;15.32;2.25;;;;;;;;;;5034243;28;20057;-66
2023/03/28 01:16:41;;;;;;;19.77;2.38;;;;;;;;;;5049487;28;20037;-67
2023/03/28 01:19:13;;;;;;;23.67;2.90;;;;;;;;;;5048716;28;20697;-66
2023/03/28 01:21:53;;;;;;;16.08;2.40;;;;;;;;;;5051732;28;20128;-66
2023/03/28 01:24:26;;;;;;;23.15;4.00;;;;;;;;;;5047887;28;20060;-66
2023/03/28 01:26:55;;;;;;;17.30;2.37;;;;;;;;;;5032198;28;20492;-66
2023/03/28 01:29:35;;;;;;;17.08;2.17;;;;;;;;;;5051903;28;20393;-65
2023/03/28 01:32:02;;;;;;;14.27;2.25;;;;;;;;;;5046489;28;20037;-66
2023/03/28 01:34:37;;;;;;;31.45;3.13;;;;;;;;;;5048679;28;20159;-66
2023/03/28 01:37:17;;;;;;;18.55;2.45;;;;;;;;;;5049597;28;20090;-66
2023/03/28 01:39:46;;;;;;;13.52;1.95;;;;;;;;;;5053518;28;20044;-66
2023/03/28 01:42:32;;;;;;;20.67;2.47;;;;;;;;;;5054676;28;20126;-66
2023/03/28 01:45:08;;;;;;;17.70;2.50;;;;;;;;;;5054331;28;20054;-66
2023/03/28 01:47:39;;;;;;;16.55;2.83;;;;;;;;;;5034699;28;20052;-66
2023/03/28 01:50:17;;;;;;;19.77;2.47;;;;;;;;;;5052933;28;20048;-66
2023/03/28 01:52:57;;;;;;;15.88;2.45;;;;;;;;;;5058267;28;20048;-66
2023/03/28 01:55:27;;;;;;;15.02;2.42;;;;;;;;;;5034438;28;20109;-66
2023/03/28 01:58:00;;;;;;;13.02;2.25;;;;;;;;;;5053835;28;20102;-66
2023/03/28 02:00:31;;;;;;;15.02;2.45;;;;;;;;;;5052328;28;20118;-66
2023/03/28 02:02:59;;;;;;;15.23;1.98;;;;;;;;;;5054646;28;20068;-66
2023/03/28 02:05:26;;;;;;;13.68;1.92;;;;;;;;;;5054919;28;20052;-66
2023/03/28 02:07:53;;;;;;;10.85;1.80;;;;;;;;;;5055249;28;20064;-66
2023/03/28 02:10:22;;;;;;;18.65;2.08;;;;;;;;;;5052558;28;20040;-66
2023/03/28 02:12:51;;;;;;;12.63;2.25;;;;;;;;;;5052162;28;20110;-66
2023/03/28 02:15:19;;;;;;;11.30;1.85;;;;;;;;;;5063194;28;20555;-66
2023/03/28 02:17:48;;;;;;;11.88;1.85;;;;;;;;;;5066534;28;20048;-66
2023/03/28 02:20:18;;;;;;;5.95;1.45;;;;;;;;;;5036957;28;20113;-66
2023/03/28 02:22:44;;;;;;;7.00;1.55;;;;;;;;;;5061252;28;20079;-66
2023/03/28 02:25:10;;;;;;;10.95;2.33;;;;;;;;;;5063230;28;20075;-66
2023/03/28 02:27:38;;;;;;;14.27;1.85;;;;;;;;;;5062725;28;20557;-65
2023/03/28 02:30:06;;;;;;;10.25;1.63;;;;;;;;;;5064092;28;20051;-65
2023/03/28 02:32:34;;;;;;;10.80;1.70;;;;;;;;;;5063250;28;20045;-65
2023/03/28 02:35:03;;;;;;;6.20;1.35;;;;;;;;;;5061493;28;20111;-65
2023/03/28 02:37:35;;;;;;;10.45;1.65;;;;;;;;;;5062270;28;20120;-65
2023/03/28 02:40:07;;;;;;;12.85;2.08;;;;;;;;;;5063075;28;20047;-65
2023/03/28 02:42:42;;;;;;;16.30;2.05;;;;;;;;;;5065323;28;20040;-65
2023/03/28 02:45:08;;;;;;;11.35;1.60;;;;;;;;;;5035939;28;20072;-65
2023/03/28 02:47:38;;;;;;;10.25;2.03;;;;;;;;;;5053392;28;20161;-65
2023/03/28 02:50:12;;;;;;;6.80;1.50;;;;;;;;;;5035978;28;20070;-66
2023/03/28 02:52:50;;;;;;;8.45;1.80;;;;;;;;;;5061374;28;20052;-66
2023/03/28 02:55:19;;;;;;;8.25;1.40;;;;;;;;;;5054493;28;20045;-66
2023/03/28 02:57:48;;;;;;;10.63;1.42;;;;;;;;;;5041035;28;20514;-66
2023/03/28 03:00:16;;;;;;;10.93;1.40;;;;;;;;;;5035853;28;20041;-66
2023/03/28 03:02:43;;;;;;;9.60;1.45;;;;;;;;;;5053750;28;20125;-66
2023/03/28 03:05:10;;;;;;;10.18;1.83;;;;;;;;;;5034050;28;20135;-66
2023/03/28 03:07:37;;;;;;;11.82;1.50;;;;;;;;;;5056056;28;20485;-66
2023/03/28 03:10:05;;;;;;;10.52;2.40;;;;;;;;;;5053464;28;20199;-66
2023/03/28 03:12:32;;;;;;;18.20;3.47;;;;;;;;;;5055345;28;20460;-66
2023/03/28 03:14:59;;;;;;;10.30;1.23;;;;;;;;;;5053866;28;20044;-66
2023/03/28 03:17:26;;;;;;;10.52;1.52;;;;;;;;;;5053937;28;20056;-66
2023/03/28 03:19:52;;;;;;;11.60;1.33;;;;;;;;;;5052243;28;20598;-66
2023/03/28 03:22:19;;;;;;;13.13;1.83;;;;;;;;;;5054193;28;20048;-66
2023/03/28 03:24:45;;;;;;;12.10;2.13;;;;;;;;;;5034270;28;20102;-66
2023/03/28 03:27:12;;;;;;;9.68;1.25;;;;;;;;;;5052934;28;20197;-66
2023/03/28 03:29:38;;;;;;;6.60;1.63;;;;;;;;;;5052116;28;20110;-66
2023/03/28 03:32:04;;;;;;;12.95;2.35;;;;;;;;;;5053654;28;20048;-66
2023/03/28 03:34:32;;;;;;;9.68;1.48;;;;;;;;;;5039927;28;20149;-66
2023/03/28 03:36:59;;;;;;;17.38;2.95;;;;;;;;;;5059290;28;20063;-66
2023/03/28 03:39:25;;;;;;;10.07;1.50;;;;;;;;;;5052718;28;20143;-66
2023/03/28 03:41:51;;;;;;;12.98;3.13;;;;;;;;;;5053757;28;20552;-66
2023/03/28 03:44:17;;;;;;;8.35;1.90;;;;;;;;;;5054323;28;20127;-66
2023/03/28 03:46:43;;;;;;;11.68;1.90;;;;;;;;;;5036515;28;20076;-66
2023/03/28 03:49:10;;;;;;;6.47;1.55;;;;;;;;;;5053485;28;20367;-66
2023/03/28 03:51:38;;;;;;;13.75;2.25;;;;;;;;;;5048935;28;20040;-66
2023/03/28 03:54:04;;;;;;;15.18;2.35;;;;;;;;;;5054779;28;20040;-65
2023/03/28 03:56:31;;;;;;;10.15;1.85;;;;;;;;;;5035108;28;20051;-65
2023/03/28 03:58:57;;;;;;;14.80;2.33;;;;;;;;;;5051687;28;20044;-65
2023/03/28 04:01:24;;;;;;;12.60;2.20;;;;;;;;;;5053438;28;20056;-65
2023/03/28 04:03:51;;;;;;;13.88;2.10;;;;;;;;;;5051261;28;21878;-66
2023/03/28 04:06:18;;;;;;;20.30;2.58;;;;;;;;;;5053928;28;20051;-65
2023/03/28 04:08:44;;;;;;;10.77;2.35;;;;;;;;;;5057842;28;20052;-66
2023/03/28 04:11:10;;;;;;;11.23;2.20;;;;;;;;;;5054451;28;20361;-66
2023/03/28 04:13:37;;;;;;;10.55;2.35;;;;;;;;;;5036725;28;20496;-66
2023/03/28 04:16:03;;;;;;;18.17;2.78;;;;;;;;;;5055431;28;20040;-65
2023/03/28 04:18:30;;;;;;;12.82;3.00;;;;;;;;;;5053993;28;20056;-65
2023/03/28 04:20:58;;;;;;;14.73;2.20;;;;;;;;;;5048747;28;20072;-66
2023/03/28 04:23:25;;;;;;;13.65;2.00;;;;;;;;;;5051446;28;20403;-65
2023/03/28 04:25:54;;;;;;;19.50;3.80;;;;;;;;;;5049988;28;20063;-66
2023/03/28 04:28:24;;;;;;;21.02;4.00;;;;;;;;;;5049230;28;20048;-66
2023/03/28 04:30:53;;;;;;;21.67;2.60;;;;;;;;;;5051985;28;20533;-66
2023/03/28 04:33:23;;;;;;;12.55;2.25;;;;;;;;;;5036565;28;20088;-66
2023/03/28 04:35:55;;;;;;;14.07;2.15;;;;;;;;;;5035248;28;20067;-66
2023/03/28 04:38:24;;;;;;;13.68;1.95;;;;;;;;;;5035016;28;20063;-66
2023/03/28 04:40:52;;;;;;;18.15;2.00;;;;;;;;;;5053338;28;20049;-66
2023/03/28 04:43:19;;;;;;;13.27;2.03;;;;;;;;;;5050638;28;20049;-66
2023/03/28 04:45:45;;;;;;;14.75;1.73;;;;;;;;;;5052797;28;20435;-66
2023/03/28 04:48:11;;;;;;;17.77;2.80;;;;;;;;;;5036653;28;20040;-66
2023/03/28 04:50:37;;;;;;;12.50;3.53;;;;;;;;;;5032981;28;20124;-66
2023/03/28 04:53:03;;;;;;;22.17;2.97;;;;;;;;;;5031217;28;20081;-66
2023/03/28 04:55:30;;;;;;;17.60;2.25;;;;;;;;;;5049766;28;20036;-73
2023/03/28 04:57:57;;;;;;;16.30;2.63;;;;;;;;;;5054532;28;20059;-66
2023/03/28 05:00:24;;;;;;;24.00;2.40;;;;;;;;;;5055694;28;20071;-67
2023/03/28 05:02:53;;;;;;;10.30;3.03;;;;;;;;;;5051739;28;20044;-67
2023/03/28 05:05:20;;;;;;;20.98;2.55;;;;;;;;;;5055512;28;20040;-67
2023/03/28 05:07:46;;;;;;;19.25;2.50;;;;;;;;;;5049439;28;20056;-67
2023/03/28 05:10:12;;;;;;;9.68;1.98;;;;;;;;;;5034052;28;20136;-66
2023/03/28 05:12:38;;;;;;;14.77;2.30;;;;;;;;;;5032513;28;20052;-66
2023/03/28 05:15:05;;;;;;;14.00;2.35;;;;;;;;;;5035688;28;20048;-66
2023/03/28 05:17:31;;;;;;;15.95;2.55;;;;;;;;;;5025870;28;20111;-67
2023/03/28 05:19:57;;;;;;;13.02;2.40;;;;;;;;;;5035375;28;20048;-66
2023/03/28 05:22:24;;;;;;;19.55;2.45;;;;;;;;;;5015502;28;20400;-65
2023/03/28 05:24:50;;;;;;;9.43;1.98;;;;;;;;;;5040063;28;20084;-66
2023/03/28 05:27:16;;;;;;;14.60;2.97;;;;;;;;;;5021603;28;20036;-66
2023/03/28 05:29:43;;;;;;;15.05;2.35;;;;;;;;;;5037645;28;20124;-66
2023/03/28 05:32:11;;;;;;;9.18;2.63;;;;;;;;;;5037210;28;20128;-67
2023/03/28 05:34:37;;;;;;;19.33;3.08;;;;;;;;;;5035388;28;20140;-66
2023/03/28 05:37:03;;;;;;;17.70;2.53;;;;;;;;;;5025404;28;20055;-65
2023/03/28 05:39:30;;;;;;;11.02;2.30;;;;;;;;;;5022414;28;20080;-66
2023/03/28 05:41:56;;;;;;;12.60;2.50;;;;;;;;;;5040930;28;20048;-66
2023/03/28 05:44:22;;;;;;;11.70;2.33;;;;;;;;;;5020294;28;20077;-66
2023/03/28 05:46:48;;;;;;;15.20;2.38;;;;;;;;;;5038625;28;20033;-66
2023/03/28 05:49:14;;;;;;;16.83;2.75;;;;;;;;;;5048899;28;20048;-66
2023/03/28 05:51:41;;;;;;;13.10;2.78;;;;;;;;;;5022610;28;20410;-66
2023/03/28 05:54:07;;;;;;;12.48;1.92;;;;;;;;;;5044215;28;20481;-65
2023/03/28 05:56:34;;;;;;;25.15;3.13;;;;;;;;;;5026610;28;20056;-66
2023/03/28 05:59:01;;;;;;;12.63;1.58;;;;;;;;;;5040768;28;20050;-66
2023/03/28 06:01:27;;;;;;;11.65;2.08;;;;;;;;;;5043122;28;20087;-66
2023/03/28 06:03:54;;;;;;;14.80;2.28;;;;;;;;;;5042423;28;20037;-66
2023/03/28 06:06:21;;;;;;;11.60;3.22;;;;;;;;;;5044692;28;20116;-66
2023/03/28 06:08:47;;;;;;;13.38;2.20;;;;;;;;;;5021672;28;20053;-66
2023/03/28 06:11:13;;;;;;;14.52;1.98;;;;;;;;;;5038431;28;20033;-66
2023/03/28 06:13:40;;;;;;;10.02;2.10;;;;;;;;;;5044706;28;20485;-66
2023/03/28 06:16:06;;;;;;;8.40;1.48;;;;;;;;;;5043784;28;20370;-65
2023/03/28 06:18:32;;;;;;;10.13;2.78;;;;;;;;;;5059697;28;20140;-65
2023/03/28 06:20:58;;;;;;;11.88;2.00;;;;;;;;;;5061442;28;20052;-65
2023/03/28 06:23:24;;;;;;;15.30;2.83;;;;;;;;;;5041800;28;20044;-65
2023/03/28 06:25:51;;;;;;;8.93;2.45;;;;;;;;;;5057156;28;20479;-65
2023/03/28 06:28:17;;;;;;;15.68;3.38;;;;;;;;;;5031119;28;20151;-65
2023/03/28 06:30:46;;;;;;;18.70;4.30;;;;;;;;;;5061123;28;20029;-65
2023/03/28 06:33:13;;;;;;;14.93;4.32;;;;;;;;;;5057371;28;20041;-65
2023/03/28 06:35:39;;;;;;;24.67;5.57;;;;;;;;;;5059115;28;20195;-65
2023/03/28 06:38:05;;;;;;;12.60;3.67;;;;;;;;;;5056494;28;20059;-65
2023/03/28 06:40:31;;;;;;;21.65;4.28;;;;;;;;;;5059997;28;20407;-65
2023/03/28 06:42:57;;;;;;;12.45;3.28;;;;;;;;;;5060183;28;20064;-65
2023/03/28 06:45:24;;;;;;;12.05;3.80;;;;;;;;;;5058399;28;20033;-65
2023/03/28 06:47:50;;;;;;;14.05;3.35;;;;;;;;;;5041939;28;20036;-65
2023/03/28 06:50:16;;;;;;;15.75;3.03;;;;;;;;;;5057412;28;20055;-65
2023/03/28 06:52:43;;;;;;;13.65;3.30;;;;;;;;;;5058693;28;20040;-65
2023/03/28 06:55:09;;;;;;;13.93;2.70;;;;;;;;;;5060951;28;20178;-65
2023/03/28 06:57:35;;;;;;;14.95;2.90;;;;;;;;;;5058645;28;20119;-65
2023/03/28 07:00:02;;;;;;;11.80;3.75;;;;;;;;;;5060819;28;20048;-65
2023/03/28 07:02:28;;;;;;;7.78;2.83;;;;;;;;;;5060461;28;20045;-65
2023/03/28 07:04:54;;;;;;;11.85;2.50;;;;;;;;;;5042437;28;20052;-65
2023/03/28 07:07:21;;;;;;;11.13;2.22;;;;;;;;;;5059059;28;20055;-66
2023/03/28 07:09:48;;;;;;;8.85;2.20;;;;;;;;;;5059896;28;20041;-66
2023/03/28 07:12:15;;;;;;;9.65;2.17;;;;;;;;;;5064160;28;20049;-66
2023/03/28 07:14:43;;;;;;;12.05;1.98;;;;;;;;;;5063289;28;20119;-66
2023/03/28 07:17:10;;;;;;;10.93;1.90;;;;;;;;;;5060221;28;20056;-67
2023/03/28 07:19:37;;;;;;;9.18;2.17;;;;;;;;;;5058159;28;20106;-67
2023/03/28 07:22:03;;;;;;;12.02;1.77;;;;;;;;;;5034376;28;20346;-66
2023/03/28 07:24:29;;;;;;;7.47;1.80;;;;;;;;;;5056579;28;20036;-65
2023/03/28 07:26:55;;;;;;;7.95;2.08;;;;;;;;;;5042246;28;20032;-66
2023/03/28 07:29:21;;;;;;;13.18;2.10;;;;;;;;;;5059624;28;20175;-66
2023/03/28 07:31:48;;;;;;;13.85;2.55;;;;;;;;;;5059583;28;20047;-66
2023/03/28 07:34:17;;;;;;;8.75;2.13;;;;;;;;;;5040423;28;20029;-66
2023/03/28 07:36:43;;;;;;;8.25;1.35;;;;;;;;;;5059131;28;20053;-66
2023/03/28 07:39:09;;;;;;;10.35;2.10;;;;;;;;;;5061839;28;20063;-66
2023/03/28 07:41:36;;;;;;;7.10;1.30;;;;;;;;;;5063418;28;20045;-66
2023/03/28 07:44:02;;;;;;;14.93;2.10;;;;;;;;;;5063382;28;20178;-67
2023/03/28 07:46:28;;;;;;;6.28;1.55;;;;;;;;;;5046228;28;20101;-66
2023/03/28 07:48:55;;;;;;;7.82;2.72;;;;;;;;;;5040595;28;20044;-66
2023/03/28 07:51:21;;;;;;;8.32;1.42;;;;;;;;;;5063501;28;20037;-67
2023/03/28 07:53:47;;;;;;;16.70;1.80;;;;;;;;;;5058711;28;20084;-66
2023/03/28 07:56:13;;;;;;;10.20;1.88;;;;;;;;;;5054836;28;20036;-67
2023/03/28 07:58:40;;;;;;;11.10;1.25;;;;;;;;;;5025170;28;20044;-67
2023/03/28 08:01:08;;;;;;;6.90;1.67;;;;;;;;;;5046283;28;20055;-67
2023/03/28 08:03:34;;;;;;;5.90;1.38;;;;;;;;;;5041383;28;20040;-67
2023/03/28 08:06:04;;;;;;;6.03;1.85;;;;;;;;;;5044453;28;20099;-67
2023/03/28 08:08:30;;;;;;;8.10;1.48;;;;;;;;;;5060095;28;20131;-66
2023/03/28 08:10:56;;;;;;;3.72;0.85;;;;;;;;;;5058330;28;20435;-66
2023/03/28 08:13:23;;;;;;;6.18;1.15;;;;;;;;;;5062891;28;20087;-67
2023/03/28 08:15:50;;;;;;;9.85;1.30;;;;;;;;;;5064307;28;20041;-66
2023/03/28 08:18:19;;;;;;;8.25;1.27;;;;;;;;;;5065251;28;20061;-67
2023/03/28 08:20:47;;;;;;;9.82;1.30;;;;;;;;;;5065565;28;20037;-67
2023/03/28 08:23:14;;;;;;;8.80;1.35;;;;;;;;;;5060734;28;20460;-66
2023/03/28 08:25:40;;;;;;;6.82;1.25;;;;;;;;;;5064164;28;20051;-67
2023/03/28 08:28:06;;;;;;;6.38;1.30;;;;;;;;;;5048449;28;20052;-67
2023/03/28 08:30:32;;;;;;;8.88;1.15;;;;;;;;;;5060520;28;20122;-67
2023/03/28 08:32:59;;;;;;;4.93;0.98;;;;;;;;;;5041370;28;20119;-67
2023/03/28 08:35:26;;;;;;;4.88;0.98;;;;;;;;;;5059591;28;20176;-67
2023/03/28 08:37:52;;;;;;;6.22;1.17;;;;;;;;;;5041679;28;20148;-67
2023/03/28 08:40:19;;;;;;;7.50;0.88;;;;;;;;;;5060929;28;20365;-66
2023/03/28 08:43:01;;;;;;;9.73;1.15;;;;;;;;;;5040047;28;20048;-67
2023/03/28 08:45:31;;;;;;;7.00;1.33;;;;;;;;;;5060448;28;20110;-67
2023/03/28 08:47:58;;;;;;;4.13;0.80;;;;;;;;;;5038506;28;20140;-67
2023/03/28 08:50:29;;;;;;;6.30;1.30;;;;;;;;;;5062577;28;20098;-67
2023/03/28 08:52:55;;;;;;;5.97;0.82;;;;;;;;;;5067604;28;20098;-67
2023/03/28 08:55:30;;;;;;;6.03;1.33;;;;;;;;;;5063918;28;20609;-67
2023/03/28 08:57:57;;;;;;;4.13;0.73;;;;;;;;;;5055444;28;20037;-67
2023/03/28 09:00:29;;;;;;;3.58;0.70;;;;;;;;;;5048016;28;20510;-67
2023/03/28 09:02:55;;;;;;;7.47;1.02;;;;;;;;;;5063564;28;20040;-64
2023/03/28 09:05:42;;;;;;;6.13;1.08;;;;;;;;;;5062847;28;20123;-67
2023/03/28 09:08:21;;;;;;;10.50;2.72;;;;;;;;;;5066665;28;20070;-67
2023/03/28 09:10:53;;;;;;;3.97;0.80;;;;;;;;;;5064268;28;20076;-67
2023/03/28 09:13:24;;;;;;;8.80;1.33;;;;;;;;;;5060912;28;20085;-66
2023/03/28 09:15:58;;;;;;;8.13;1.40;;;;;;;;;;5064043;28;20044;-66
2023/03/28 09:18:44;;;;;;;6.03;1.40;;;;;;;;;;5062139;28;20052;-67
2023/03/28 09:21:15;;;;;;;6.32;1.25;;;;;;;;;;5043889;28;20484;-67
2023/03/28 09:23:52;;;;;;;6.63;1.15;;;;;;;;;;5041928;28;20053;-67
2023/03/28 09:26:22;;;;;;;7.80;1.30;;;;;;;;;;5045386;28;20492;-67
2023/03/28 09:28:50;;;;;;;8.65;1.70;;;;;;;;;;5061457;28;20492;-67
2023/03/28 09:31:17;;;;;;;3.83;1.02;;;;;;;;;;5062804;28;20052;-66
2023/03/28 09:33:45;;;;;;;3.88;1.15;;;;;;;;;;5062796;28;20044;-67
2023/03/28 09:36:13;;;;;;;7.05;1.58;;;;;;;;;;5065027;28;20545;-66
2023/03/28 09:38:44;;;;;;;5.45;1.40;;;;;;;;;;5060479;28;20120;-66
2023/03/28 09:41:14;;;;;;;6.85;1.75;;;;;;;;;;5063510;28;20433;-67
2023/03/28 09:43:45;;;;;;;9.57;1.40;;;;;;;;;;5061287;28;20652;-67
2023/03/28 09:46:17;;;;;;;9.00;1.60;;;;;;;;;;5046743;28;20056;-66
2023/03/28 09:48:43;;;;;;;4.88;1.38;;;;;;;;;;5047497;28;20079;-64
2023/03/28 09:51:15;;;;;;;8.95;1.63;;;;;;;;;;5039765;28;20064;-67
2023/03/28 09:53:41;;;;;;;9.30;2.30;;;;;;;;;;5062714;28;20048;-67
2023/03/28 09:56:08;;;;;;;5.72;1.48;;;;;;;;;;5063456;28;20682;-68
2023/03/28 09:58:47;;;;;;;5.60;1.70;;;;;;;;;;5042959;28;20403;-67
2023/03/28 10:01:23;;;;;;;9.15;1.60;;;;;;;;;;5043724;28;20053;-67
2023/03/28 10:03:56;;;;;;;5.45;1.70;;;;;;;;;;5058975;28;20071;-66
2023/03/28 10:06:24;;;;;;;6.25;1.58;;;;;;;;;;5049258;28;20059;-66
2023/03/28 10:08:50;;;;;;;6.28;1.50;;;;;;;;;;5062999;28;20163;-66
2023/03/28 10:11:18;;;;;;;6.88;2.05;;;;;;;;;;5058026;28;20044;-66
2023/03/28 10:13:47;;;;;;;7.20;1.48;;;;;;;;;;5062792;28;20124;-67
2023/03/28 10:16:15;;;;;;;7.80;1.90;;;;;;;;;;5041592;28;20048;-66
2023/03/28 10:18:41;;;;;;;8.27;2.03;;;;;;;;;;5040244;28;20552;-66
2023/03/28 10:21:12;;;;;;;6.20;1.80;;;;;;;;;;5061504;28;20463;-66
2023/03/28 10:23:39;;;;;;;7.47;2.15;;;;;;;;;;5044121;28;20048;-66
2023/03/28 10:26:06;;;;;;;7.28;2.05;;;;;;;;;;5061227;28;20097;-67
2023/03/28 10:28:34;;;;;;;6.80;1.92;;;;;;;;;;5062274;28;20438;-67
2023/03/28 10:31:01;;;;;;;5.45;1.75;;;;;;;;;;5048172;28;20044;-66
2023/03/28 10:33:31;;;;;;;6.30;2.03;;;;;;;;;;5062295;28;20040;-66
2023/03/28 10:36:05;;;;;;;10.90;3.13;;;;;;;;;;5066139;28;20044;-66
2023/03/28 10:38:31;;;;;;;;;;;;;;;;;;5063173;28;20048;-67
2023/03/28 10:41:00;;;;;;;9.75;2.25;;;;;;;;;;5036458;28;19928;-66
2023/03/28 10:43:37;;;;;;;7.53;2.20;;;;;;;;;;5058573;28;20171;-66
2023/03/28 10:46:06;;;;;;;8.60;1.90;;;;;;;;;;5040960;28;20097;-66
2023/03/28 10:48:35;;;;;;;8.18;2.38;;;;;;;;;;5061423;28;20041;-66
2023/03/28 10:51:07;;;;;;;6.50;2.53;;;;;;;;;;5058463;28;20081;-66
2023/03/28 10:53:36;;;;;;;8.88;2.20;;;;;;;;;;5038484;28;20048;-66
2023/03/28 10:56:14;;;;;;;7.97;2.65;;;;;;;;;;5058202;28;20504;-66
2023/03/28 10:58:43;;;;;;;7.57;2.45;;;;;;;;;;5060778;28;20056;-66
2023/03/28 11:01:09;;;;;;;10.98;2.55;;;;;;;;;;5062088;28;20127;-66
2023/03/28 11:03:43;;;;;;;7.60;2.53;;;;;;;;;;5061441;28;20054;-66
2023/03/28 11:06:20;;;;;;;7.53;2.85;;;;;;;;;;5061093;28;20033;-66
2023/03/28 11:08:53;;;;;;;11.63;2.67;;;;;;;;;;5062187;28;20040;-66
2023/03/28 11:11:31;;;;;;;11.40;3.25;;;;;;;;;;5060107;28;20162;-66
2023/03/28 11:14:04;;;;;;;8.13;3.05;;;;;;;;;;5054021;28;20476;-66
2023/03/28 11:16:37;;;;;;;10.02;2.75;;;;;;;;;;5059086;28;20043;-66
2023/03/28 11:19:11;;;;;;;8.52;3.65;;;;;;;;;;5061528;28;20475;-67
2023/03/28 11:21:38;;;;;;;8.43;2.78;;;;;;;;;;5037863;28;20118;-66
2023/03/28 11:24:12;;;;;;;8.10;2.78;;;;;;;;;;5060707;28;20055;-66
2023/03/28 11:26:51;;;;;;;9.43;3.20;;;;;;;;;;5057572;28;20451;-66
2023/03/28 11:29:32;;;;;;;7.60;3.38;;;;;;;;;;5054799;28;20053;-66
2023/03/28 11:32:12;;;;;;;11.32;3.38;;;;;;;;;;5057074;28;20380;-66
2023/03/28 11:34:42;;;;;;;8.65;3.05;;;;;;;;;;5041064;28;20052;-67
2023/03/28 11:37:14;;;;;;;9.98;2.75;;;;;;;;;;5060776;28;20085;-66
2023/03/28 11:39:43;;;;;;;12.50;3.50;;;;;;;;;;5062151;28;20102;-66
2023/03/28 11:42:19;;;;;;;9.27;2.75;;;;;;;;;;5061271;28;20082;-66
2023/03/28 11:44:53;;;;;;;10.57;2.53;;;;;;;;;;5059272;28;20114;-66
2023/03/28 11:47:19;;;;;;;;;;;;;;;;;;5060720;28;20124;-66
2023/03/28 11:49:50;;;;;;;8.90;2.78;;;;;;;;;;5062495;28;19969;-67
2023/03/28 11:52:22;;;;;;;8.88;2.80;;;;;;;;;;5060530;28;20373;-66
2023/03/28 11:54:50;;;;;;;8.13;2.72;;;;;;;;;;5059107;28;20368;-67
2023/03/28 11:57:20;;;;;;;7.13;2.28;;;;;;;;;;5058831;28;20064;-66
2023/03/28 11:59:53;;;;;;;8.95;2.85;;;;;;;;;;5042248;28;20082;-67
2023/03/28 12:02:40;;;;;;;11.38;2.67;;;;;;;;;;5060513;28;20041;-66
2023/03/28 12:05:09;;;;;;;7.50;2.38;;;;;;;;;;5065168;28;20072;-66
2023/03/28 12:07:43;;;;;;;9.70;3.50;;;;;;;;;;5062648;28;20124;-66
2023/03/28 12:10:18;;;;;;;6.55;2.58;;;;;;;;;;5062253;28;20060;-67
2023/03/28 12:12:54;;;;;;;7.63;2.65;;;;;;;;;;5058343;28;20044;-64
2023/03/28 12:15:21;;;;;;;6.90;2.53;;;;;;;;;;5063233;28;20115;-66
2023/03/28 12:17:56;;;;;;;11.90;2.63;;;;;;;;;;5054358;28;20428;-66
2023/03/28 12:20:31;;;;;;;7.30;2.65;;;;;;;;;;5056273;28;20099;-66
2023/03/28 12:23:02;;;;;;;8.02;3.00;;;;;;;;;;5037958;28;20403;-66
2023/03/28 12:25:30;;;;;;;9.32;3.00;;;;;;;;;;5058856;28;20507;-66
2023/03/28 12:28:16;;;;;;;9.45;2.88;;;;;;;;;;5048516;28;21003;-66
2023/03/28 12:30:47;;;;;;;10.85;2.95;;;;;;;;;;5056682;28;20162;-66
2023/03/28 12:33:14;;;;;;;11.32;3.33;;;;;;;;;;5059192;28;20055;-66
2023/03/28 12:35:48;;;;;;;8.48;3.33;;;;;;;;;;5059554;28;20476;-66
2023/03/28 12:38:15;;;;;;;11.02;3.75;;;;;;;;;;5061354;28;20097;-66
2023/03/28 12:40:49;;;;;;;11.00;3.85;;;;;;;;;;5056256;28;20060;-66
2023/03/28 12:43:16;;;;;;;10.98;3.35;;;;;;;;;;5057699;28;20060;-66
2023/03/28 12:45:44;;;;;;;9.02;3.28;;;;;;;;;;5037796;28;20254;-66
2023/03/28 12:48:29;;;;;;;9.07;3.20;;;;;;;;;;5062101;28;20044;-66
2023/03/28 12:50:59;;;;;;;11.30;3.42;;;;;;;;;;5056347;28;20056;-66
2023/03/28 12:53:25;;;;;;;8.25;3.10;;;;;;;;;;5058349;28;20090;-66
2023/03/28 12:55:51;;;;;;;9.48;3.60;;;;;;;;;;5045137;28;20475;-66
2023/03/28 12:58:22;;;;;;;8.63;2.92;;;;;;;;;;5058653;28;20163;-65
2023/03/28 13:00:58;;;;;;;9.23;2.95;;;;;;;;;;5061102;28;20052;-65
2023/03/28 13:03:34;;;;;;;10.13;3.72;;;;;;;;;;5055491;28;20075;-66
2023/03/28 13:06:13;;;;;;;7.90;3.33;;;;;;;;;;5042322;28;20403;-65
2023/03/28 13:09:03;;;;;;;7.88;3.10;;;;;;;;;;5058585;28;20523;-66
2023/03/28 13:11:37;;;;;;;8.43;2.53;;;;;;;;;;5054571;28;20045;-65
2023/03/28 13:14:24;;;;;;;7.15;3.63;;;;;;;;;;5056787;28;22257;-65
2023/03/28 13:16:51;;;;;;;9.82;3.05;;;;;;;;;;5061304;28;20072;-65
2023/03/28 13:19:19;;;;;;;10.13;3.25;;;;;;;;;;5058388;28;20045;-65
2023/03/28 13:21:48;;;;;;;9.23;3.05;;;;;;;;;;5060680;28;20056;-66
2023/03/28 13:24:27;;;;;;;7.88;3.13;;;;;;;;;;5043743;28;20052;-65
2023/03/28 13:26:55;;;;;;;7.43;2.67;;;;;;;;;;5062106;28;20044;-66
2023/03/28 13:29:22;;;;;;;9.52;3.53;;;;;;;;;;5062720;28;20550;-66
2023/03/28 13:31:48;;;;;;;6.97;2.80;;;;;;;;;;5044225;28;20095;-66
2023/03/28 13:34:19;;;;;;;7.47;2.75;;;;;;;;;;5059734;28;20055;-66
2023/03/28 13:36:52;;;;;;;9.95;3.00;;;;;;;;;;5062732;28;20072;-66
2023/03/28 13:39:21;;;;;;;6.00;2.47;;;;;;;;;;5050949;28;20045;-66
2023/03/28 13:41:47;;;;;;;9.02;2.88;;;;;;;;;;5050605;28;20060;-66
2023/03/28 13:44:18;;;;;;;8.32;2.70;;;;;;;;;;5063262;28;20066;-66
2023/03/28 13:46:45;;;;;;;6.95;2.60;;;;;;;;;;5065150;28;20033;-66
2023/03/28 13:49:15;;;;;;;8.55;2.40;;;;;;;;;;5046091;28;20053;-65
2023/03/28 13:51:47;;;;;;;9.32;2.90;;;;;;;;;;5062320;28;20036;-66
2023/03/28 13:54:14;;;;;;;9.43;3.30;;;;;;;;;;5044504;28;20128;-66
2023/03/28 13:56:45;;;;;;;10.40;3.38;;;;;;;;;;5062546;28;20032;-66
2023/03/28 13:59:18;;;;;;;8.15;3.38;;;;;;;;;;5062680;28;20059;-66
2023/03/28 14:01:47;;;;;;;9.57;3.45;;;;;;;;;;5059030;28;20040;-65
2023/03/28 14:04:22;;;;;;;11.55;3.60;;;;;;;;;;5058748;28;20053;-66
2023/03/28 14:06:50;;;;;;;9.10;3.70;;;;;;;;;;5057984;28;20044;-66
2023/03/28 14:09:27;;;;;;;9.10;4.40;;;;;;;;;;5039318;28;20059;-66
2023/03/28 14:11:54;;;;;;;7.75;3.80;;;;;;;;;;5061911;28;20048;-66
2023/03/28 14:14:28;;;;;;;11.60;4.15;;;;;;;;;;5042077;28;20049;-66
2023/03/28 14:16:55;;;;;;;11.45;4.55;;;;;;;;;;5058199;28;20152;-65
2023/03/28 14:19:23;;;;;;;6.85;3.55;;;;;;;;;;5058666;28;20049;-65
2023/03/28 14:21:49;;;;;;;9.63;4.15;;;;;;;;;;5061925;28;20049;-65
2023/03/28 14:24:19;;;;;;;10.07;3.70;;;;;;;;;;5059319;28;21637;-66
2023/03/28 14:26:46;;;;;;;12.18;4.43;;;;;;;;;;5041010;28;20127;-66
2023/03/28 14:29:14;;;;;;;10.35;4.47;;;;;;;;;;5058422;28;20056;-66
2023/03/28 14:31:44;;;;;;;9.63;4.35;;;;;;;;;;5058205;28;20043;-66
2023/03/28 14:34:15;;;;;;;9.82;4.15;;;;;;;;;;5040581;28;20123;-65
2023/03/28 14:36:53;;;;;;;15.70;4.57;;;;;;;;;;5041307;28;20033;-66
2023/03/28 14:39:20;;;;;;;9.80;4.25;;;;;;;;;;5054825;28;20040;-66
2023/03/28 14:41:46;;;;;;;11.40;4.57;;;;;;;;;;5034684;28;20044;-66
2023/03/28 14:44:12;;;;;;;12.60;4.07;;;;;;;;;;5055806;28;20118;-66
2023/03/28 14:46:39;;;;;;;14.00;4.85;;;;;;;;;;5062827;28;20044;-66